Destin, FL (32541)

4:25 PM CST on February 05, 2016 (GMT -0600)
Destin Water Users | | Change Station
CLOSE
Current Station
Personal Weather Station
Location: Destin, FL
Elevation: 26 ft
Nearby Weather Stations
Active Advisory: Flood Warning

Elev 26 ft 30.39 °N, 86.48 °W | Updated 19 seconds ago

Clear
Clear
56.8 °F
Feels Like 56.8 °F
N
1.4
Wind Variable Wind from WNW
Gusts 5.0 mph

Today
High -- | Low -- °F
--% Chance of Precip.
Yesterday
High -- | Low -- °F
Precip. -- in
Pressure 30.33 in
Visibility 10.0 miles
Clouds Clear
Dew Point 23 °F
Humidity 27%
Rainfall 0.00 in
Snow Depth Not available.
6:34 AM 5:25 PM
Waning Crescent, 9% visible
METAR KDTS 052153Z AUTO 35008KT 10SM CLR 14/M06 A3033 RMK AO2 SLP271 T01441061 TSNO
Pressure 30.33 in
Visibility 10.0 miles
Clouds Clear
Dew Point 23 °F
Humidity 27%
Rainfall 0.00 in
Snow Depth Not available.
6:34 AM 5:25 PM
Waning Crescent, 9% visible
METAR KDTS 052153Z AUTO 35008KT 10SM CLR 14/M06 A3033 RMK AO2 SLP271 T01441061 TSNO

10-Day Weather Forecast

Almanac

Astronomy

Feb. 05, 2016 Rise Set
Actual Time
Civil Twilight
Nautical Twilight
Astronomical Twilight
Moon
Length of Visible Light
Length of Day
Tomorrow will be .
, % of the Moon is Illuminated

Today's Extremes

State Highs State Lows

Community

WunderPhotos

Upload Photos

1,890,878 photos uploaded!

WunderBlog® & News

Nearby

Air Quality

  Air Quality AQ Index Pollutant
Not available.

Snow Depth

Station Depth Elevation

Earthquake Activity

City Distance Mag. Time & Date
Minimum magnitude displayed is 2.5.

Coastal Water Temperatures

Place Temperature

Stations

Nearby Weather Stations

Station Location Temp. Windchill Dew Point Humidity Wind Precip. Elev Updated Type
                   

Watches & Warnings

Flood Warning
Issued: 10:27 AM CST Feb. 5, 2016 – National Weather Service

... Flood Warning extended until late Saturday night...
... The Flood Warning continues for
the shoal river near Crestview
* until late Saturday night.
* At 9 am Friday the stage was 8.3 feet.
* Minor flooding is occurring and minor flooding is forecast.
* Flood stage is 8 feet.
* The river will continue rising to near 8.3 feet by this afternoon. The river
will fall below flood stage tomorrow evening.
* At 8 feet... minor flooding of low lying areas.


Lat... Lon 3078 8650 3078 8649 3069 8653 3069 8663
3070 8663 3070 8655